Wetterdaten: aktuell Samstag, 23.03.2019 14:40
Datum Zeit Temp. A. Temp. A. min Temp. A. max Feuchte A. Luftdruck Regen Wind Richtung Richtung Sonnenschein UV Solar Windben
23.03.2019 14:40 11,4 C 11,3 C 11,4 C 77 % 1031,3 hPa 0,0 l/m 1,6 km/h (1 Bft) W-SW 247 0 min 1,1 UV-I 146 W/m 4,8 km/h (1 Bft)
23.03.2019 14:35 11,3 C 11,2 C 11,3 C 78 % 1031,4 hPa 0,0 l/m 4,8 km/h (1 Bft) W 270 0 min 1,0 UV-I 146 W/m 12,9 km/h (3 Bft)
23.03.2019 14:30 11,2 C 11,2 C 11,3 C 76 % 1031,3 hPa 0,0 l/m 6,4 km/h (2 Bft) W 270 0 min 1,1 UV-I 153 W/m 14,5 km/h (3 Bft)
23.03.2019 14:25 11,3 C 11,3 C 11,3 C 76 % 1031,3 hPa 0,0 l/m 4,8 km/h (1 Bft) W 270 0 min 1,3 UV-I 172 W/m 11,3 km/h (2 Bft)
23.03.2019 14:20 11,3 C 11,3 C 11,3 C 76 % 1031,4 hPa 0,0 l/m 4,8 km/h (1 Bft) W 270 0 min 1,3 UV-I 176 W/m 9,7 km/h (2 Bft)
23.03.2019 14:15 11,3 C 11,3 C 11,3 C 75 % 1031,3 hPa 0,0 l/m 3,2 km/h (1 Bft) W 270 0 min 1,3 UV-I 171 W/m 6,4 km/h (2 Bft)
23.03.2019 14:10 11,3 C 11,3 C 11,3 C 77 % 1031,4 hPa 0,0 l/m 4,8 km/h (1 Bft) W 270 0 min 1,3 UV-I 169 W/m 11,3 km/h (2 Bft)
23.03.2019 14:05 11,3 C 11,2 C 11,3 C 77 % 1031,3 hPa 0,0 l/m 4,8 km/h (1 Bft) W 270 0 min 1,4 UV-I 190 W/m 9,7 km/h (2 Bft)
23.03.2019 14:00 11,3 C 11,2 C 11,3 C 76 % 1031,3 hPa 0,0 l/m 4,8 km/h (1 Bft) W 270 0 min 1,4 UV-I 193 W/m 9,7 km/h (2 Bft)
23.03.2019 13:55 11,3 C 11,2 C 11,3 C 79 % 1031,3 hPa 0,0 l/m 1,6 km/h (1 Bft) W 270 0 min 1,4 UV-I 193 W/m 4,8 km/h (1 Bft)
23.03.2019 13:50 11,2 C 11,2 C 11,2 C 77 % 1031,3 hPa 0,0 l/m 1,6 km/h (1 Bft) W-SW 247 0 min 1,4 UV-I 190 W/m 6,4 km/h (2 Bft)
23.03.2019 13:45 11,2 C 11,1 C 11,2 C 77 % 1031,3 hPa 0,0 l/m 4,8 km/h (1 Bft) W 270 0 min 1,4 UV-I 183 W/m 9,7 km/h (2 Bft)
23.03.2019 13:40 11,2 C 11,1 C 11,2 C 78 % 1031,4 hPa 0,0 l/m 4,8 km/h (1 Bft) W 270 0 min 1,3 UV-I 176 W/m 11,3 km/h (2 Bft)
23.03.2019 13:35 11,1 C 11,1 C 11,3 C 74 % 1031,3 hPa 0,0 l/m 3,2 km/h (1 Bft) W-NW 292 0 min 1,4 UV-I 179 W/m 11,3 km/h (2 Bft)
23.03.2019 13:30 11,3 C 11,2 C 11,3 C 75 % 1031,3 hPa 0,0 l/m 3,2 km/h (1 Bft) W-NW 292 0 min 1,4 UV-I 181 W/m 9,7 km/h (2 Bft)
23.03.2019 13:25 11,2 C 11,2 C 11,2 C 75 % 1031,3 hPa 0,0 l/m 1,6 km/h (1 Bft) W-NW 292 0 min 1,4 UV-I 179 W/m 4,8 km/h (1 Bft)
23.03.2019 13:20 11,2 C 11,1 C 11,2 C 77 % 1031,4 hPa 0,0 l/m 3,2 km/h (1 Bft) N-NW 337 0 min 1,2 UV-I 156 W/m 8,0 km/h (2 Bft)
23.03.2019 13:15 11,1 C 11,1 C 11,2 C 76 % 1031,5 hPa 0,0 l/m 4,8 km/h (1 Bft) W 270 0 min 1,4 UV-I 186 W/m 11,3 km/h (2 Bft)
23.03.2019 13:10 11,1 C 11,1 C 11,1 C 75 % 1031,4 hPa 0,0 l/m 4,8 km/h (1 Bft) W 270 0 min 1,6 UV-I 206 W/m 12,9 km/h (3 Bft)
23.03.2019 13:05 11,1 C 11,0 C 11,1 C 76 % 1031,3 hPa 0,0 l/m 8,0 km/h (2 Bft) W 270 0 min 1,7 UV-I 223 W/m 12,9 km/h (3 Bft)
23.03.2019 13:00 11,1 C 11,0 C 11,1 C 76 % 1031,3 hPa 0,0 l/m 4,8 km/h (1 Bft) W 270 0 min 2,0 UV-I 260 W/m 11,3 km/h (2 Bft)
23.03.2019 12:55 11,1 C 10,9 C 11,1 C 76 % 1031,2 hPa 0,0 l/m 4,8 km/h (1 Bft) W 270 0 min 2,0 UV-I 264 W/m 9,7 km/h (2 Bft)
23.03.2019 12:50 10,9 C 10,9 C 11,0 C 75 % 1031,2 hPa 0,0 l/m 4,8 km/h (1 Bft) W 270 0 min 1,6 UV-I 204 W/m 11,3 km/h (2 Bft)
23.03.2019 12:45 10,9 C 10,9 C 10,9 C 73 % 1031,2 hPa 0,0 l/m 3,2 km/h (1 Bft) N 360 0 min 1,5 UV-I 192 W/m 6,4 km/h (2 Bft)
23.03.2019 12:40 10,9 C 10,9 C 10,9 C 73 % 1031,2 hPa 0,0 l/m 3,2 km/h (1 Bft) W 270 0 min 1,3 UV-I 172 W/m 12,9 km/h (3 Bft)
23.03.2019 12:35 10,9 C 10,8 C 10,9 C 75 % 1031,2 hPa 0,0 l/m 0,0 km/h (0 Bft) N 0 0 min 1,4 UV-I 178 W/m 0,0 km/h (0 Bft)
23.03.2019 12:30 10,9 C 10,8 C 10,9 C 74 % 1031,2 hPa 0,0 l/m 1,6 km/h (1 Bft) W 270 0 min 1,4 UV-I 183 W/m 6,4 km/h (2 Bft)
23.03.2019 12:25 10,9 C 10,9 C 10,9 C 74 % 1031,1 hPa 0,0 l/m 3,2 km/h (1 Bft) W 270 0 min 1,7 UV-I 232 W/m 9,7 km/h (2 Bft)
23.03.2019 12:20 10,9 C 10,8 C 10,9 C 74 % 1031,1 hPa 0,0 l/m 1,6 km/h (1 Bft) N 360 0 min 2,2 UV-I 290 W/m 9,7 km/h (2 Bft)
23.03.2019 12:15 10,8 C 10,8 C 10,9 C 74 % 1031,1 hPa 0,0 l/m 3,2 km/h (1 Bft) N 360 0 min 2,2 UV-I 288 W/m 9,7 km/h (2 Bft)
23.03.2019 12:10 10,8 C 10,8 C 10,9 C 75 % 1031,1 hPa 0,0 l/m 4,8 km/h (1 Bft) W 270 0 min 2,1 UV-I 287 W/m 9,7 km/h (2 Bft)
23.03.2019 12:05 10,8 C 10,7 C 10,8 C 75 % 1031,1 hPa 0,0 l/m 3,2 km/h (1 Bft) W 270 0 min 2,4 UV-I 327 W/m 6,4 km/h (2 Bft)
23.03.2019 12:00 10,8 C 10,7 C 10,8 C 76 % 1031,0 hPa 0,0 l/m 3,2 km/h (1 Bft) W 270 5 min 2,5 UV-I 348 W/m 9,7 km/h (2 Bft)
23.03.2019 11:55 10,7 C 10,6 C 10,7 C 76 % 1031,1 hPa 0,0 l/m 1,6 km/h (1 Bft) S-SW 202 5 min 2,7 UV-I 388 W/m 6,4 km/h (2 Bft)
23.03.2019 11:50 10,6 C 10,5 C 10,6 C 75 % 1031,2 hPa 0,0 l/m 3,2 km/h (1 Bft) W 270 5 min 2,5 UV-I 383 W/m 6,4 km/h (2 Bft)
23.03.2019 11:45 10,5 C 10,3 C 10,5 C 76 % 1031,1 hPa 0,0 l/m 4,8 km/h (1 Bft) W 270 5 min 2,7 UV-I 422 W/m 11,3 km/h (2 Bft)
23.03.2019 11:40 10,3 C 10,2 C 10,3 C 77 % 1031,1 hPa 0,0 l/m 3,2 km/h (1 Bft) W 270 0 min 2,4 UV-I 316 W/m 11,3 km/h (2 Bft)
23.03.2019 11:35 10,2 C 10,1 C 10,2 C 76 % 1031,1 hPa 0,0 l/m 4,8 km/h (1 Bft) W 270 0 min 2,2 UV-I 288 W/m 9,7 km/h (2 Bft)
23.03.2019 11:30 10,1 C 10,1 C 10,1 C 75 % 1031,2 hPa 0,0 l/m 0,0 km/h (0 Bft) W 270 0 min 1,8 UV-I 218 W/m 4,8 km/h (1 Bft)
23.03.2019 11:25 10,1 C 9,9 C 10,1 C 75 % 1031,2 hPa 0,0 l/m 0,0 km/h (0 Bft) SW 225 0 min 1,3 UV-I 169 W/m 1,6 km/h (1 Bft)
23.03.2019 11:20 9,9 C 9,9 C 9,9 C 75 % 1031,2 hPa 0,0 l/m 0,0 km/h (0 Bft) SW 225 0 min 1,1 UV-I 149 W/m 4,8 km/h (1 Bft)
23.03.2019 11:15 9,8 C 9,7 C 9,8 C 75 % 1031,2 hPa 0,0 l/m 0,0 km/h (0 Bft) N 0 0 min 1,1 UV-I 139 W/m 0,0 km/h (0 Bft)
23.03.2019 11:10 9,7 C 9,6 C 9,7 C 76 % 1031,2 hPa 0,0 l/m 0,0 km/h (0 Bft) S 180 0 min 1,1 UV-I 137 W/m 1,6 km/h (1 Bft)
23.03.2019 11:05 9,6 C 9,6 C 9,7 C 75 % 1031,2 hPa 0,0 l/m 1,6 km/h (1 Bft) S 180 0 min 1,2 UV-I 160 W/m 3,2 km/h (1 Bft)
23.03.2019 11:00 9,6 C 9,6 C 9,7 C 76 % 1031,1 hPa 0,0 l/m 3,2 km/h (1 Bft) W 270 0 min 1,4 UV-I 190 W/m 4,8 km/h (1 Bft)
23.03.2019 10:55 9,6 C 9,4 C 9,6 C 76 % 1031,1 hPa 0,0 l/m 1,6 km/h (1 Bft) S 180 0 min 1,4 UV-I 185 W/m 4,8 km/h (1 Bft)
23.03.2019 10:50 9,4 C 9,3 C 9,4 C 76 % 1031,1 hPa 0,0 l/m 0,0 km/h (0 Bft) S 180 0 min 1,4 UV-I 185 W/m 3,2 km/h (1 Bft)
23.03.2019 10:45 9,4 C 9,3 C 9,4 C 79 % 1031,1 hPa 0,0 l/m 1,6 km/h (1 Bft) S 180 0 min 1,3 UV-I 183 W/m 4,8 km/h (1 Bft)
23.03.2019 10:40 9,3 C 9,1 C 9,3 C 80 % 1031,1 hPa 0,0 l/m 3,2 km/h (1 Bft) W 270 0 min 1,2 UV-I 155 W/m 6,4 km/h (2 Bft)
23.03.2019 10:35 9,1 C 9,1 C 9,1 C 79 % 1031,0 hPa 0,0 l/m 3,2 km/h (1 Bft) W 270 0 min 1,1 UV-I 151 W/m 11,3 km/h (2 Bft)
23.03.2019 10:30 9,1 C 8,9 C 9,1 C 79 % 1031,0 hPa 0,0 l/m 3,2 km/h (1 Bft) W 270 0 min 1,2 UV-I 158 W/m 6,4 km/h (2 Bft)
23.03.2019 10:25 8,9 C 8,9 C 8,9 C 79 % 1031,0 hPa 0,0 l/m 3,2 km/h (1 Bft) W 270 0 min 0,9 UV-I 118 W/m 6,4 km/h (2 Bft)
23.03.2019 10:20 8,9 C 8,8 C 8,9 C 80 % 1031,1 hPa 0,0 l/m 1,6 km/h (1 Bft) W-SW 247 0 min 0,7 UV-I 79 W/m 6,4 km/h (2 Bft)
23.03.2019 10:15 8,9 C 8,8 C 8,9 C 81 % 1031,1 hPa 0,0 l/m 3,2 km/h (1 Bft) W 270 0 min 0,6 UV-I 79 W/m 9,7 km/h (2 Bft)
23.03.2019 10:10 8,8 C 8,8 C 8,9 C 81 % 1030,9 hPa 0,0 l/m 4,8 km/h (1 Bft) W 270 0 min 0,6 UV-I 90 W/m 11,3 km/h (2 Bft)
23.03.2019 10:05 8,8 C 8,8 C 8,9 C 81 % 1030,9 hPa 0,0 l/m 3,2 km/h (1 Bft) SW 225 0 min 0,6 UV-I 90 W/m 8,0 km/h (2 Bft)
23.03.2019 10:00 8,8 C 8,8 C 8,9 C 82 % 1030,9 hPa 0,0 l/m 4,8 km/h (1 Bft) S-SW 202 0 min 0,6 UV-I 84 W/m 9,7 km/h (2 Bft)
23.03.2019 09:55 8,8 C 8,8 C 8,9 C 80 % 1030,8 hPa 0,0 l/m 3,2 km/h (1 Bft) SW 225 0 min 0,6 UV-I 79 W/m 6,4 km/h (2 Bft)
23.03.2019 09:50 8,8 C 8,8 C 8,8 C 82 % 1030,8 hPa 0,0 l/m 3,2 km/h (1 Bft) W 270 0 min 0,6 UV-I 86 W/m 6,4 km/h (2 Bft)
23.03.2019 09:45 8,8 C 8,8 C 8,8 C 82 % 1030,8 hPa 0,0 l/m 1,6 km/h (1 Bft) W-SW 247 0 min 0,6 UV-I 86 W/m 4,8 km/h (1 Bft)
23.03.2019 09:40 8,7 C 8,7 C 8,8 C 81 % 1030,7 hPa 0,0 l/m 4,8 km/h (1 Bft) W 270 0 min 0,6 UV-I 93 W/m 11,3 km/h (2 Bft)
23.03.2019 09:35 8,7 C 8,7 C 8,7 C 81 % 1030,7 hPa 0,0 l/m 4,8 km/h (1 Bft) W 270 0 min 0,6 UV-I 86 W/m 14,5 km/h (3 Bft)
23.03.2019 09:30 8,7 C 8,7 C 8,7 C 82 % 1030,8 hPa 0,0 l/m 3,2 km/h (1 Bft) W 270 0 min 0,5 UV-I 77 W/m 11,3 km/h (2 Bft)
23.03.2019 09:25 8,7 C 8,6 C 8,7 C 82 % 1030,7 hPa 0,0 l/m 3,2 km/h (1 Bft) W 270 0 min 0,5 UV-I 83 W/m 8,0 km/h (2 Bft)
23.03.2019 09:20 8,7 C 8,6 C 8,7 C 84 % 1030,7 hPa 0,0 l/m 4,8 km/h (1 Bft) SW 225 0 min 0,5 UV-I 77 W/m 8,0 km/h (2 Bft)
23.03.2019 09:15 8,6 C 8,5 C 8,6 C 83 % 1030,6 hPa 0,0 l/m 3,2 km/h (1 Bft) SW 225 0 min 0,5 UV-I 74 W/m 6,4 km/h (2 Bft)
23.03.2019 09:10 8,5 C 8,4 C 8,6 C 82 % 1030,7 hPa 0,0 l/m 3,2 km/h (1 Bft) SW 225 0 min 0,0 UV-I 65 W/m 6,4 km/h (2 Bft)
23.03.2019 09:05 8,4 C 8,4 C 8,4 C 83 % 1030,7 hPa 0,0 l/m 1,6 km/h (1 Bft) SW 225 0 min 0,0 UV-I 63 W/m 4,8 km/h (1 Bft)
23.03.2019 09:00 8,4 C 8,3 C 8,4 C 84 % 1030,7 hPa 0,0 l/m 1,6 km/h (1 Bft) S-SW 202 0 min 0,0 UV-I 62 W/m 4,8 km/h (1 Bft)
23.03.2019 08:55 8,3 C 8,3 C 8,4 C 84 % 1030,7 hPa 0,0 l/m 3,2 km/h (1 Bft) SW 225 0 min 0,0 UV-I 56 W/m 6,4 km/h (2 Bft)
23.03.2019 08:50 8,3 C 8,3 C 8,3 C 85 % 1030,7 hPa 0,0 l/m 1,6 km/h (1 Bft) SW 225 0 min 0,0 UV-I 53 W/m 4,8 km/h (1 Bft)
23.03.2019 08:45 8,3 C 8,2 C 8,3 C 84 % 1030,6 hPa 0,0 l/m 3,2 km/h (1 Bft) SW 225 0 min 0,0 UV-I 54 W/m 4,8 km/h (1 Bft)
23.03.2019 08:40 8,3 C 8,2 C 8,3 C 85 % 1030,6 hPa 0,0 l/m 1,6 km/h (1 Bft) SW 225 0 min 0,0 UV-I 53 W/m 8,0 km/h (2 Bft)
23.03.2019 08:35 8,2 C 8,1 C 8,2 C 85 % 1030,5 hPa 0,0 l/m 3,2 km/h (1 Bft) SW 225 0 min 0,0 UV-I 49 W/m 8,0 km/h (2 Bft)
23.03.2019 08:30 8,2 C 8,1 C 8,2 C 85 % 1030,4 hPa 0,0 l/m 1,6 km/h (1 Bft) SW 225 0 min 0,0 UV-I 49 W/m 4,8 km/h (1 Bft)
23.03.2019 08:25 8,1 C 8,0 C 8,1 C 85 % 1030,4 hPa 0,0 l/m 3,2 km/h (1 Bft) SW 225 0 min 0,0 UV-I 47 W/m 9,7 km/h (2 Bft)
23.03.2019 08:20 8,1 C 8,0 C 8,1 C 86 % 1030,3 hPa 0,0 l/m 1,6 km/h (1 Bft) SW 225 0 min 0,0 UV-I 46 W/m 4,8 km/h (1 Bft)
23.03.2019 08:15 7,9 C 7,9 C 8,0 C 85 % 1030,3 hPa 0,0 l/m 0,0 km/h (0 Bft) SW 225 0 min 0,0 UV-I 39 W/m 3,2 km/h (1 Bft)
23.03.2019 08:10 7,9 C 7,8 C 7,9 C 86 % 1030,3 hPa 0,0 l/m 0,0 km/h (0 Bft) W 270 0 min 0,0 UV-I 40 W/m 1,6 km/h (1 Bft)
23.03.2019 08:05 7,8 C 7,8 C 7,8 C 85 % 1030,3 hPa 0,0 l/m 0,0 km/h (0 Bft) W 270 0 min 0,0 UV-I 35 W/m 3,2 km/h (1 Bft)
23.03.2019 08:00 7,8 C 7,7 C 7,8 C 85 % 1030,4 hPa 0,0 l/m 0,0 km/h (0 Bft) N 0 0 min 0,0 UV-I 33 W/m 0,0 km/h (0 Bft)
23.03.2019 07:55 7,7 C 7,7 C 7,7 C 87 % 1030,3 hPa 0,0 l/m 0,0 km/h (0 Bft) N 0 0 min 0,0 UV-I 25 W/m 0,0 km/h (0 Bft)
23.03.2019 07:50 7,7 C 7,6 C 7,7 C 86 % 1030,3 hPa 0,0 l/m 0,0 km/h (0 Bft) W-SW 247 0 min 0,0 UV-I 23 W/m 3,2 km/h (1 Bft)
23.03.2019 07:45 7,7 C 7,6 C 7,7 C 86 % 1030,3 hPa 0,0 l/m 1,6 km/h (1 Bft) SW 225 0 min 0,0 UV-I 21 W/m 3,2 km/h (1 Bft)
23.03.2019 07:40 7,6 C 7,6 C 7,7 C 87 % 1030,2 hPa 0,0 l/m 0,0 km/h (0 Bft) W 270 0 min 0,0 UV-I 19 W/m 4,8 km/h (1 Bft)
23.03.2019 07:35 7,6 C 7,6 C 7,6 C 86 % 1030,3 hPa 0,0 l/m 0,0 km/h (0 Bft) W 270 0 min 0,0 UV-I 19 W/m 4,8 km/h (1 Bft)
23.03.2019 07:30 7,6 C 7,5 C 7,6 C 86 % 1030,2 hPa 0,0 l/m 1,6 km/h (1 Bft) W 270 0 min 0,0 UV-I 19 W/m 9,7 km/h (2 Bft)
23.03.2019 07:25 7,6 C 7,5 C 7,6 C 85 % 1030,2 hPa 0,0 l/m 6,4 km/h (2 Bft) W 270 0 min 0,0 UV-I 12 W/m 11,3 km/h (2 Bft)
23.03.2019 07:20 7,6 C 7,5 C 7,6 C 86 % 1030,3 hPa 0,0 l/m 8,0 km/h (2 Bft) W 270 0 min 0,0 UV-I 9 W/m 11,3 km/h (2 Bft)
23.03.2019 07:15 7,5 C 7,4 C 7,5 C 85 % 1030,3 hPa 0,0 l/m 9,7 km/h (2 Bft) W 270 0 min 0,0 UV-I 9 W/m 16,1 km/h (3 Bft)
23.03.2019 07:10 7,5 C 7,4 C 7,6 C 86 % 1030,3 hPa 0,0 l/m 4,8 km/h (1 Bft) W 270 0 min 0,0 UV-I 7 W/m 12,9 km/h (3 Bft)
23.03.2019 07:05 7,5 C 7,4 C 7,6 C 87 % 1030,3 hPa 0,0 l/m 4,8 km/h (1 Bft) W 270 0 min 0,0 UV-I 5 W/m 9,7 km/h (2 Bft)
23.03.2019 07:00 7,5 C 7,5 C 7,6 C 87 % 1030,1 hPa 0,0 l/m 3,2 km/h (1 Bft) W 270 0 min 0,0 UV-I 5 W/m 9,7 km/h (2 Bft)
23.03.2019 06:55 7,5 C 7,5 C 7,6 C 87 % 1030,1 hPa 0,0 l/m 3,2 km/h (1 Bft) W 270 0 min 0,0 UV-I 0 W/m 6,4 km/h (2 Bft)
23.03.2019 06:50 7,6 C 7,4 C 7,6 C 87 % 1030,1 hPa 0,0 l/m 4,8 km/h (1 Bft) W 270 0 min 0,0 UV-I 0 W/m 12,9 km/h (3 Bft)
23.03.2019 06:45 7,5 C 7,4 C 7,5 C 87 % 1030,0 hPa 0,0 l/m 6,4 km/h (2 Bft) W 270 0 min 0,0 UV-I 0 W/m 11,3 km/h (2 Bft)
23.03.2019 06:40 7,4 C 7,3 C 7,4 C 86 % 1029,9 hPa 0,0 l/m 4,8 km/h (1 Bft) W 270 0 min 0,0 UV-I 0 W/m 12,9 km/h (3 Bft)
23.03.2019 06:35 7,4 C 7,3 C 7,4 C 88 % 1030,0 hPa 0,0 l/m 3,2 km/h (1 Bft) W 270 0 min 0,0 UV-I 0 W/m 9,7 km/h (2 Bft)
23.03.2019 06:30 7,4 C 7,4 C 7,4 C 89 % 1029,9 hPa 0,0 l/m 0,0 km/h (0 Bft) W 270 0 min 0,0 UV-I 0 W/m 1,6 km/h (1 Bft)
23.03.2019 06:25 7,4 C 7,4 C 7,4 C 89 % 1029,7 hPa 0,0 l/m 1,6 km/h (1 Bft) W 270 0 min 0,0 UV-I 0 W/m 4,8 km/h (1 Bft)
23.03.2019 06:20 7,4 C 7,4 C 7,4 C 88 % 1029,7 hPa 0,0 l/m 3,2 km/h (1 Bft) W 270 0 min 0,0 UV-I 0 W/m 4,8 km/h (1 Bft)
23.03.2019 06:15 7,4 C 7,4 C 7,4 C 88 % 1029,7 hPa 0,0 l/m 3,2 km/h (1 Bft) W 270 0 min 0,0 UV-I 0 W/m 6,4 km/h (2 Bft)
23.03.2019 06:10 7,4 C 7,3 C 7,4 C 86 % 1029,7 hPa 0,0 l/m 3,2 km/h (1 Bft) W-NW 292 0 min 0,0 UV-I 0 W/m 9,7 km/h (2 Bft)
23.03.2019 06:05 7,4 C 7,3 C 7,4 C 88 % 1029,6 hPa 0,0 l/m 3,2 km/h (1 Bft) W 270 0 min 0,0 UV-I 0 W/m 6,4 km/h (2 Bft)
23.03.2019 06:00 7,3 C 7,3 C 7,3 C 88 % 1029,5 hPa 0,0 l/m 4,8 km/h (1 Bft) W 270 0 min 0,0 UV-I 0 W/m 12,9 km/h (3 Bft)
23.03.2019 05:55 7,3 C 7,2 C 7,3 C 89 % 1029,5 hPa 0,0 l/m 4,8 km/h (1 Bft) W 270 0 min 0,0 UV-I 0 W/m 11,3 km/h (2 Bft)
23.03.2019 05:50 7,2 C 7,2 C 7,2 C 90 % 1029,6 hPa 0,0 l/m 3,2 km/h (1 Bft) W 270 0 min 0,0 UV-I 0 W/m 6,4 km/h (2 Bft)
23.03.2019 05:45 7,2 C 7,2 C 7,2 C 90 % 1029,6 hPa 0,0 l/m 3,2 km/h (1 Bft) W 270 0 min 0,0 UV-I 0 W/m 6,4 km/h (2 Bft)
23.03.2019 05:40 7,2 C 7,2 C 7,2 C 90 % 1029,4 hPa 0,0 l/m 0,0 km/h (0 Bft) W 270 0 min 0,0 UV-I 0 W/m 3,2 km/h (1 Bft)
23.03.2019 05:35 7,2 C 7,1 C 7,2 C 90 % 1029,4 hPa 0,0 l/m 3,2 km/h (1 Bft) W 270 0 min 0,0 UV-I 0 W/m 4,8 km/h (1 Bft)
23.03.2019 05:30 7,2 C 7,1 C 7,2 C 90 % 1029,4 hPa 0,0 l/m 4,8 km/h (1 Bft) W 270 0 min 0,0 UV-I 0 W/m 12,9 km/h (3 Bft)
23.03.2019 05:25 7,2 C 7,1 C 7,2 C 90 % 1029,3 hPa 0,0 l/m 0,0 km/h (0 Bft) W 270 0 min 0,0 UV-I 0 W/m 9,7 km/h (2 Bft)
23.03.2019 05:20 7,2 C 7,1 C 7,2 C 89 % 1029,3 hPa 0,0 l/m 0,0 km/h (0 Bft) N 0 0 min 0,0 UV-I 0 W/m 0,0 km/h (0 Bft)
23.03.2019 05:15 7,1 C 7,1 C 7,1 C 90 % 1029,3 hPa 0,0 l/m 0,0 km/h (0 Bft) N 0 0 min 0,0 UV-I 0 W/m 0,0 km/h (0 Bft)
23.03.2019 05:10 7,1 C 7,1 C 7,1 C 90 % 1029,3 hPa 0,0 l/m 0,0 km/h (0 Bft) N 0 0 min 0,0 UV-I 0 W/m 0,0 km/h (0 Bft)
23.03.2019 05:05 7,1 C 7,1 C 7,2 C 90 % 1029,3 hPa 0,0 l/m 1,6 km/h (1 Bft) W-NW 292 0 min 0,0 UV-I 0 W/m 4,8 km/h (1 Bft)
23.03.2019 05:00 7,2 C 7,1 C 7,2 C 90 % 1029,3 hPa 0,0 l/m 0,0 km/h (0 Bft) W-NW 292 0 min 0,0 UV-I 0 W/m 4,8 km/h (1 Bft)
23.03.2019 04:55 7,1 C 7,1 C 7,2 C 90 % 1029,3 hPa 0,0 l/m 3,2 km/h (1 Bft) W-NW 292 0 min 0,0 UV-I 0 W/m 6,4 km/h (2 Bft)
23.03.2019 04:50 7,1 C 7,1 C 7,1 C 89 % 1029,2 hPa 0,0 l/m 4,8 km/h (1 Bft) N-NW 337 0 min 0,0 UV-I 0 W/m 14,5 km/h (3 Bft)
23.03.2019 04:45 7,1 C 7,1 C 7,1 C 90 % 1029,3 hPa 0,0 l/m 6,4 km/h (2 Bft) W 270 0 min 0,0 UV-I 0 W/m 16,1 km/h (3 Bft)
23.03.2019 04:40 7,1 C 7,1 C 7,1 C 90 % 1029,2 hPa 0,0 l/m 6,4 km/h (2 Bft) W 270 0 min 0,0 UV-I 0 W/m 12,9 km/h (3 Bft)
23.03.2019 04:35 7,1 C 6,9 C 7,1 C 90 % 1029,2 hPa 0,0 l/m 4,8 km/h (1 Bft) N-NW 337 0 min 0,0 UV-I 0 W/m 8,0 km/h (2 Bft)
23.03.2019 04:30 6,9 C 6,9 C 6,9 C 90 % 1029,3 hPa 0,0 l/m 3,2 km/h (1 Bft) W-NW 292 0 min 0,0 UV-I 0 W/m 11,3 km/h (2 Bft)
23.03.2019 04:25 6,9 C 6,8 C 6,9 C 90 % 1029,3 hPa 0,0 l/m 1,6 km/h (1 Bft) N-NW 337 0 min 0,0 UV-I 0 W/m 6,4 km/h (2 Bft)
23.03.2019 04:20 6,8 C 6,8 C 6,8 C 90 % 1029,2 hPa 0,0 l/m 3,2 km/h (1 Bft) NW 315 0 min 0,0 UV-I 0 W/m 11,3 km/h (2 Bft)
23.03.2019 04:15 6,8 C 6,7 C 6,8 C 91 % 1029,2 hPa 0,0 l/m 3,2 km/h (1 Bft) NW 315 0 min 0,0 UV-I 0 W/m 12,9 km/h (3 Bft)
23.03.2019 04:10 6,7 C 6,7 C 6,7 C 91 % 1029,2 hPa 0,0 l/m 8,0 km/h (2 Bft) W-NW 292 0 min 0,0 UV-I 0 W/m 14,5 km/h (3 Bft)
23.03.2019 04:05 6,7 C 6,6 C 6,7 C 91 % 1029,1 hPa 0,0 l/m 6,4 km/h (2 Bft) W 270 0 min 0,0 UV-I 0 W/m 17,7 km/h (3 Bft)
23.03.2019 04:00 6,6 C 6,6 C 6,6 C 91 % 1029,1 hPa 0,0 l/m 6,4 km/h (2 Bft) W-NW 292 0 min 0,0 UV-I 0 W/m 14,5 km/h (3 Bft)
23.03.2019 03:55 6,6 C 6,5 C 6,6 C 91 % 1029,1 hPa 0,0 l/m 9,7 km/h (2 Bft) W 270 0 min 0,0 UV-I 0 W/m 16,1 km/h (3 Bft)
23.03.2019 03:50 6,5 C 6,5 C 6,6 C 91 % 1029,1 hPa 0,0 l/m 6,4 km/h (2 Bft) W-NW 292 0 min 0,0 UV-I 0 W/m 16,1 km/h (3 Bft)
23.03.2019 03:45 6,5 C 6,4 C 6,6 C 91 % 1029,1 hPa 0,0 l/m 4,8 km/h (1 Bft) W-NW 292 0 min 0,0 UV-I 0 W/m 12,9 km/h (3 Bft)
23.03.2019 03:40 6,5 C 6,4 C 6,5 C 92 % 1029,0 hPa 0,0 l/m 9,7 km/h (2 Bft) W 270 0 min 0,0 UV-I 0 W/m 19,3 km/h (3 Bft)
23.03.2019 03:35 6,4 C 6,4 C 6,4 C 91 % 1029,0 hPa 0,0 l/m 9,7 km/h (2 Bft) W 270 0 min 0,0 UV-I 0 W/m 17,7 km/h (3 Bft)
23.03.2019 03:30 6,4 C 6,3 C 6,4 C 91 % 1029,0 hPa 0,0 l/m 11,3 km/h (2 Bft) W 270 0 min 0,0 UV-I 0 W/m 20,9 km/h (4 Bft)
23.03.2019 03:25 6,3 C 6,3 C 6,4 C 92 % 1029,0 hPa 0,0 l/m 6,4 km/h (2 Bft) W-NW 292 0 min 0,0 UV-I 0 W/m 14,5 km/h (3 Bft)
23.03.2019 03:20 6,3 C 6,3 C 6,4 C 92 % 1029,0 hPa 0,0 l/m 11,3 km/h (2 Bft) W-NW 292 0 min 0,0 UV-I 0 W/m 19,3 km/h (3 Bft)
23.03.2019 03:15 6,3 C 6,3 C 6,4 C 92 % 1028,9 hPa 0,0 l/m 8,0 km/h (2 Bft) W 270 0 min 0,0 UV-I 0 W/m 20,9 km/h (4 Bft)
23.03.2019 03:10 6,3 C 6,3 C 6,4 C 92 % 1028,8 hPa 0,0 l/m 12,9 km/h (3 Bft) W-NW 292 0 min 0,0 UV-I 0 W/m 17,7 km/h (3 Bft)
23.03.2019 03:05 6,3 C 6,3 C 6,4 C 92 % 1028,8 hPa 0,0 l/m 11,3 km/h (2 Bft) W-NW 292 0 min 0,0 UV-I 0 W/m 20,9 km/h (4 Bft)
23.03.2019 03:00 6,4 C 6,4 C 6,4 C 91 % 1028,6 hPa 0,0 l/m 9,7 km/h (2 Bft) W 270 0 min 0,0 UV-I 0 W/m 20,9 km/h (4 Bft)
23.03.2019 02:55 6,4 C 6,4 C 6,4 C 91 % 1028,6 hPa 0,0 l/m 9,7 km/h (2 Bft) W 270 0 min 0,0 UV-I 0 W/m 19,3 km/h (3 Bft)
23.03.2019 02:50 6,4 C 6,3 C 6,4 C 92 % 1028,6 hPa 0,0 l/m 14,5 km/h (3 Bft) W-NW 292 0 min 0,0 UV-I 0 W/m 25,7 km/h (4 Bft)
23.03.2019 02:45 6,4 C 6,4 C 6,4 C 91 % 1028,5 hPa 0,0 l/m 9,7 km/h (2 Bft) W-NW 292 0 min 0,0 UV-I 0 W/m 25,7 km/h (4 Bft)
23.03.2019 02:40 6,4 C 6,3 C 6,4 C 91 % 1028,5 hPa 0,0 l/m 9,7 km/h (2 Bft) W 270 0 min 0,0 UV-I 0 W/m 16,1 km/h (3 Bft)
23.03.2019 02:35 6,3 C 6,3 C 6,3 C 91 % 1028,5 hPa 0,0 l/m 12,9 km/h (3 Bft) W 270 0 min 0,0 UV-I 0 W/m 22,5 km/h (4 Bft)
23.03.2019 02:30 6,3 C 6,3 C 6,7 C 90 % 1028,5 hPa 0,0 l/m 17,7 km/h (3 Bft) W 270 0 min 0,0 UV-I 0 W/m 29,0 km/h (5 Bft)
23.03.2019 02:25 6,8 C 6,8 C 7,4 C 87 % 1028,5 hPa 0,0 l/m 17,7 km/h (3 Bft) W 270 0 min 0,0 UV-I 0 W/m 29,0 km/h (5 Bft)
23.03.2019 02:20 7,5 C 7,5 C 7,9 C 85 % 1028,5 hPa 0,0 l/m 14,5 km/h (3 Bft) W 270 0 min 0,0 UV-I 0 W/m 24,1 km/h (4 Bft)
23.03.2019 02:15 7,9 C 7,9 C 8,1 C 84 % 1028,5 hPa 0,0 l/m 14,5 km/h (3 Bft) W 270 0 min 0,0 UV-I 0 W/m 24,1 km/h (4 Bft)
23.03.2019 02:10 8,1 C 8,1 C 8,3 C 83 % 1028,4 hPa 0,0 l/m 16,1 km/h (3 Bft) W 270 0 min 0,0 UV-I 0 W/m 24,1 km/h (4 Bft)
23.03.2019 02:05 8,3 C 8,2 C 8,4 C 82 % 1028,4 hPa 0,0 l/m 14,5 km/h (3 Bft) W 270 0 min 0,0 UV-I 0 W/m 19,3 km/h (3 Bft)
23.03.2019 02:00 8,4 C 8,4 C 8,6 C 81 % 1028,3 hPa 0,0 l/m 11,3 km/h (2 Bft) W 270 0 min 0,0 UV-I 0 W/m 16,1 km/h (3 Bft)
23.03.2019 01:55 8,5 C 8,3 C 8,6 C 80 % 1028,3 hPa 0,0 l/m 11,3 km/h (2 Bft) W 270 0 min 0,0 UV-I 0 W/m 16,1 km/h (3 Bft)
23.03.2019 01:50 8,3 C 8,1 C 8,3 C 80 % 1028,1 hPa 0,0 l/m 9,7 km/h (2 Bft) W 270 0 min 0,0 UV-I 0 W/m 17,7 km/h (3 Bft)
23.03.2019 01:45 8,1 C 8,1 C 8,3 C 80 % 1028,0 hPa 0,0 l/m 8,0 km/h (2 Bft) W 270 0 min 0,0 UV-I 0 W/m 14,5 km/h (3 Bft)
23.03.2019 01:40 8,3 C 8,3 C 8,4 C 78 % 1027,9 hPa 0,0 l/m 4,8 km/h (1 Bft) W 270 0 min 0,0 UV-I 0 W/m 14,5 km/h (3 Bft)
23.03.2019 01:35 8,4 C 8,3 C 8,4 C 78 % 1027,9 hPa 0,0 l/m 1,6 km/h (1 Bft) W 270 0 min 0,0 UV-I 0 W/m 6,4 km/h (2 Bft)
23.03.2019 01:30 8,3 C 8,2 C 8,3 C 78 % 1027,9 hPa 0,0 l/m 3,2 km/h (1 Bft) W 270 0 min 0,0 UV-I 0 W/m 9,7 km/h (2 Bft)
23.03.2019 01:25 8,3 C 8,3 C 8,5 C 78 % 1027,8 hPa 0,0 l/m 3,2 km/h (1 Bft) W 270 0 min 0,0 UV-I 0 W/m 6,4 km/h (2 Bft)
23.03.2019 01:20 8,4 C 8,4 C 8,5 C 78 % 1027,8 hPa 0,0 l/m 0,0 km/h (0 Bft) N 0 0 min 0,0 UV-I 0 W/m 0,0 km/h (0 Bft)
23.03.2019 01:15 8,4 C 8,4 C 8,4 C 78 % 1027,7 hPa 0,0 l/m 0,0 km/h (0 Bft) W 270 0 min 0,0 UV-I 0 W/m 3,2 km/h (1 Bft)
23.03.2019 01:10 8,4 C 8,4 C 8,6 C 77 % 1027,7 hPa 0,0 l/m 0,0 km/h (0 Bft) W 270 0 min 0,0 UV-I 0 W/m 1,6 km/h (1 Bft)
23.03.2019 01:05 8,6 C 8,6 C 8,7 C 77 % 1027,7 hPa 0,0 l/m 0,0 km/h (0 Bft) N 0 0 min 0,0 UV-I 0 W/m 0,0 km/h (0 Bft)
23.03.2019 01:00 8,7 C 8,6 C 8,7 C 76 % 1027,7 hPa 0,0 l/m 0,0 km/h (0 Bft) W 270 0 min 0,0 UV-I 0 W/m 3,2 km/h (1 Bft)
23.03.2019 00:55 8,7 C 8,7 C 8,8 C 76 % 1027,6 hPa 0,0 l/m 0,0 km/h (0 Bft) W 270 0 min 0,0 UV-I 0 W/m 3,2 km/h (1 Bft)
23.03.2019 00:50 8,8 C 8,8 C 8,9 C 75 % 1027,6 hPa 0,0 l/m 0,0 km/h (0 Bft) W-NW 292 0 min 0,0 UV-I 0 W/m 1,6 km/h (1 Bft)
23.03.2019 00:45 8,9 C 8,9 C 9,1 C 75 % 1027,6 hPa 0,0 l/m 0,0 km/h (0 Bft) W-SW 247 0 min 0,0 UV-I 0 W/m 3,2 km/h (1 Bft)
23.03.2019 00:40 9,2 C 9,1 C 9,3 C 74 % 1027,7 hPa 0,0 l/m 1,6 km/h (1 Bft) W-SW 247 0 min 0,0 UV-I 0 W/m 4,8 km/h (1 Bft)
23.03.2019 00:35 9,3 C 9,3 C 9,3 C 74 % 1027,7 hPa 0,0 l/m 3,2 km/h (1 Bft) W 270 0 min 0,0 UV-I 0 W/m 6,4 km/h (2 Bft)
23.03.2019 00:30 9,4 C 9,3 C 9,4 C 74 % 1027,7 hPa 0,0 l/m 3,2 km/h (1 Bft) W 270 0 min 0,0 UV-I 0 W/m 6,4 km/h (2 Bft)
23.03.2019 00:25 9,4 C 9,3 C 9,4 C 74 % 1027,6 hPa 0,0 l/m 3,2 km/h (1 Bft) W 270 0 min 0,0 UV-I 0 W/m 6,4 km/h (2 Bft)
23.03.2019 00:20 9,3 C 9,3 C 9,4 C 73 % 1027,7 hPa 0,0 l/m 4,8 km/h (1 Bft) W 270 0 min 0,0 UV-I 0 W/m 8,0 km/h (2 Bft)
23.03.2019 00:15 9,3 C 9,3 C 9,4 C 73 % 1027,6 hPa 0,0 l/m 3,2 km/h (1 Bft) W 270 0 min 0,0 UV-I 0 W/m 9,7 km/h (2 Bft)
23.03.2019 00:10 9,4 C 9,4 C 9,5 C 73 % 1027,6 hPa 0,0 l/m 4,8 km/h (1 Bft) W 270 0 min 0,0 UV-I 0 W/m 6,4 km/h (2 Bft)
23.03.2019 00:05 9,4 C 9,4 C 9,7 C 72 % 1027,5 hPa 0,0 l/m 4,8 km/h (1 Bft) W 270 0 min 0,0 UV-I 0 W/m 9,7 km/h (2 Bft)
23.03.2019 00:00 9,6 C 9,6 C 9,9 C 71 % 1027,5 hPa 0,0 l/m 4,8 km/h (1 Bft) W 270 0 min 0,0 UV-I 0 W/m 9,7 km/h (2 Bft)
_ Min-Zeit 02:30 02:30 02:35 00:00 00:00 - 00:45 - - - - - 01:05
Minimum _ 6,3 C 6,3 C 6,3 C 71 % 1027,5 hPa - 0,0 km/h (0 Bft) - - - - - 0,0 km/h (0 Bft)
_ Max-Zeit 14:40 14:10 14:40 02:50 13:15 00:00 02:25 - - 11:45 11:45 11:45 02:25
Maximum _ 11,4 C 11,3 C 11,4 C 92 % 1031,5 hPa 0,0 l/m 17,7 km/h
W (3 Bft)
- - 5 min 2,7 UV-I 422 W/m 29,0 km/h
W (5 Bft)
Durchschnitt _ 8,6 C 8,5 C 8,6 C 82 % 1029,9 hPa #0,0 l/m 4,2 km/h (1 Bft) W - #20 min. 1,4 UV-I 139 W/m 9,5 km/h (2 Bft)